sensor_id;sensor_type;location;lat;lon;timestamp;P1;durP1;ratioP1;P2;durP2;ratioP2
80653;SDS011;70020;45.524;10.240;2023-07-28T00:04:48;7.10;;;2.30;;
80653;SDS011;70020;45.524;10.240;2023-07-28T00:07:14;4.03;;;2.40;;
80653;SDS011;70020;45.524;10.240;2023-07-28T00:12:05;8.52;;;2.47;;
80653;SDS011;70020;45.524;10.240;2023-07-28T00:14:31;4.82;;;2.72;;
80653;SDS011;70020;45.524;10.240;2023-07-28T00:19:22;10.55;;;2.63;;
80653;SDS011;70020;45.524;10.240;2023-07-28T00:24:14;5.25;;;2.45;;
80653;SDS011;70020;45.524;10.240;2023-07-28T00:29:05;3.90;;;2.50;;
80653;SDS011;70020;45.524;10.240;2023-07-28T00:33:57;5.07;;;2.45;;
80653;SDS011;70020;45.524;10.240;2023-07-28T00:38:49;5.15;;;2.67;;
80653;SDS011;70020;45.524;10.240;2023-07-28T00:41:15;6.10;;;2.10;;
80653;SDS011;70020;45.524;10.240;2023-07-28T00:46:06;8.48;;;2.30;;
80653;SDS011;70020;45.524;10.240;2023-07-28T00:48:33;6.57;;;2.33;;
80653;SDS011;70020;45.524;10.240;2023-07-28T00:53:24;3.83;;;2.45;;
80653;SDS011;70020;45.524;10.240;2023-07-28T00:55:50;6.18;;;2.42;;
80653;SDS011;70020;45.524;10.240;2023-07-28T00:58:16;3.28;;;2.10;;
80653;SDS011;70020;45.524;10.240;2023-07-28T01:00:43;4.70;;;2.10;;
80653;SDS011;70020;45.524;10.240;2023-07-28T01:05:53;8.07;;;2.60;;
80653;SDS011;70020;45.524;10.240;2023-07-28T01:08:29;3.55;;;2.10;;
80653;SDS011;70020;45.524;10.240;2023-07-28T01:11:01;10.27;;;2.50;;
80653;SDS011;70020;45.524;10.240;2023-07-28T01:15:53;4.10;;;2.80;;
80653;SDS011;70020;45.524;10.240;2023-07-28T01:20:44;6.68;;;2.40;;
80653;SDS011;70020;45.524;10.240;2023-07-28T01:28:33;4.60;;;2.35;;
80653;SDS011;70020;45.524;10.240;2023-07-28T01:31:01;5.55;;;2.25;;
80653;SDS011;70020;45.524;10.240;2023-07-28T01:33:28;6.68;;;2.60;;
80653;SDS011;70020;45.524;10.240;2023-07-28T01:39:14;5.85;;;2.38;;
80653;SDS011;70020;45.524;10.240;2023-07-28T01:42:36;6.13;;;2.22;;
80653;SDS011;70020;45.524;10.240;2023-07-28T01:45:59;6.68;;;2.70;;
80653;SDS011;70020;45.524;10.240;2023-07-28T01:49:24;4.70;;;2.28;;
80653;SDS011;70020;45.524;10.240;2023-07-28T01:52:48;4.68;;;2.00;;
80653;SDS011;70020;45.524;10.240;2023-07-28T01:56:12;6.53;;;2.20;;
80653;SDS011;70020;45.524;10.240;2023-07-28T01:59:43;5.28;;;2.20;;
80653;SDS011;70020;45.524;10.240;2023-07-28T02:03:07;7.07;;;2.47;;
80653;SDS011;70020;45.524;10.240;2023-07-28T02:06:31;8.77;;;2.35;;
80653;SDS011;70020;45.524;10.240;2023-07-28T02:09:55;3.00;;;2.05;;
80653;SDS011;70020;45.524;10.240;2023-07-28T02:13:20;6.47;;;2.28;;
80653;SDS011;70020;45.524;10.240;2023-07-28T02:16:44;5.38;;;2.08;;
80653;SDS011;70020;45.524;10.240;2023-07-28T02:19:36;5.63;;;2.42;;
80653;SDS011;70020;45.524;10.240;2023-07-28T02:23:01;5.10;;;2.65;;
80653;SDS011;70020;45.524;10.240;2023-07-28T02:26:25;4.57;;;2.50;;
80653;SDS011;70020;45.524;10.240;2023-07-28T02:29:53;5.20;;;2.20;;
80653;SDS011;70020;45.524;10.240;2023-07-28T02:33:17;3.45;;;2.30;;
80653;SDS011;70020;45.524;10.240;2023-07-28T02:36:41;4.50;;;2.50;;
80653;SDS011;70020;45.524;10.240;2023-07-28T02:40:06;4.78;;;2.28;;
80653;SDS011;70020;45.524;10.240;2023-07-28T02:43:30;4.68;;;2.25;;
80653;SDS011;70020;45.524;10.240;2023-07-28T02:46:54;4.72;;;2.20;;
80653;SDS011;70020;45.524;10.240;2023-07-28T02:50:18;8.82;;;2.67;;
80653;SDS011;70020;45.524;10.240;2023-07-28T02:53:42;10.68;;;2.97;;
80653;SDS011;70020;45.524;10.240;2023-07-28T02:57:06;7.97;;;2.47;;
80653;SDS011;70020;45.524;10.240;2023-07-28T03:00:30;4.85;;;2.20;;
80653;SDS011;70020;45.524;10.240;2023-07-28T03:03:58;5.70;;;2.20;;
80653;SDS011;70020;45.524;10.240;2023-07-28T03:07:22;6.97;;;2.28;;
80653;SDS011;70020;45.524;10.240;2023-07-28T03:10:46;8.15;;;2.40;;
80653;SDS011;70020;45.524;10.240;2023-07-28T03:14:11;5.60;;;2.55;;
80653;SDS011;70020;45.524;10.240;2023-07-28T03:17:35;3.35;;;2.10;;
80653;SDS011;70020;45.524;10.240;2023-07-28T03:20:59;6.00;;;2.30;;
80653;SDS011;70020;45.524;10.240;2023-07-28T03:24:23;3.65;;;2.08;;
80653;SDS011;70020;45.524;10.240;2023-07-28T03:27:50;7.03;;;2.65;;
80653;SDS011;70020;45.524;10.240;2023-07-28T03:31:15;4.85;;;2.20;;
80653;SDS011;70020;45.524;10.240;2023-07-28T03:34:39;5.78;;;2.30;;
80653;SDS011;70020;45.524;10.240;2023-07-28T03:38:04;7.82;;;2.47;;
80653;SDS011;70020;45.524;10.240;2023-07-28T03:41:28;6.80;;;2.35;;
80653;SDS011;70020;45.524;10.240;2023-07-28T03:44:52;3.75;;;2.17;;
80653;SDS011;70020;45.524;10.240;2023-07-28T03:48:16;5.05;;;2.55;;
80653;SDS011;70020;45.524;10.240;2023-07-28T03:51:41;5.25;;;2.90;;
80653;SDS011;70020;45.524;10.240;2023-07-28T03:55:06;9.05;;;2.50;;
80653;SDS011;70020;45.524;10.240;2023-07-28T03:58:30;5.07;;;2.00;;
80653;SDS011;70020;45.524;10.240;2023-07-28T04:01:55;6.68;;;2.67;;
80653;SDS011;70020;45.524;10.240;2023-07-28T04:05:18;7.28;;;2.30;;
80653;SDS011;70020;45.524;10.240;2023-07-28T04:08:43;6.25;;;2.42;;
80653;SDS011;70020;45.524;10.240;2023-07-28T04:12:07;4.25;;;2.30;;
80653;SDS011;70020;45.524;10.240;2023-07-28T04:15:33;6.43;;;3.00;;
80653;SDS011;70020;45.524;10.240;2023-07-28T04:18:58;6.35;;;2.75;;
80653;SDS011;70020;45.524;10.240;2023-07-28T04:22:23;5.50;;;2.53;;
80653;SDS011;70020;45.524;10.240;2023-07-28T04:25:46;7.30;;;2.70;;
80653;SDS011;70020;45.524;10.240;2023-07-28T04:29:14;4.57;;;2.72;;
80653;SDS011;70020;45.524;10.240;2023-07-28T04:32:37;4.60;;;2.13;;
80653;SDS011;70020;45.524;10.240;2023-07-28T04:36:02;5.35;;;2.55;;
80653;SDS011;70020;45.524;10.240;2023-07-28T04:39:26;7.22;;;2.55;;
80653;SDS011;70020;45.524;10.240;2023-07-28T04:42:55;4.45;;;2.60;;
80653;SDS011;70020;45.524;10.240;2023-07-28T04:46:19;7.47;;;2.35;;
80653;SDS011;70020;45.524;10.240;2023-07-28T04:49:43;7.75;;;2.40;;
80653;SDS011;70020;45.524;10.240;2023-07-28T04:53:07;5.57;;;2.53;;
80653;SDS011;70020;45.524;10.240;2023-07-28T04:56:32;6.03;;;2.95;;
80653;SDS011;70020;45.524;10.240;2023-07-28T04:59:59;6.50;;;2.85;;
80653;SDS011;70020;45.524;10.240;2023-07-28T05:03:23;5.57;;;2.70;;
80653;SDS011;70020;45.524;10.240;2023-07-28T05:05:49;5.40;;;2.60;;
80653;SDS011;70020;45.524;10.240;2023-07-28T05:09:03;3.08;;;2.28;;
80653;SDS011;70020;45.524;10.240;2023-07-28T05:12:29;5.88;;;2.85;;
80653;SDS011;70020;45.524;10.240;2023-07-28T05:14:54;6.40;;;2.90;;
80653;SDS011;70020;45.524;10.240;2023-07-28T05:17:20;5.00;;;2.58;;
80653;SDS011;70020;45.524;10.240;2023-07-28T05:22:12;5.60;;;2.40;;
80653;SDS011;70020;45.524;10.240;2023-07-28T05:24:38;5.65;;;2.80;;
80653;SDS011;70020;45.524;10.240;2023-07-28T05:29:29;6.03;;;2.88;;
80653;SDS011;70020;45.524;10.240;2023-07-28T05:34:23;6.40;;;2.83;;
80653;SDS011;70020;45.524;10.240;2023-07-28T05:36:49;9.75;;;2.70;;
80653;SDS011;70020;45.524;10.240;2023-07-28T05:41:41;4.70;;;3.08;;
80653;SDS011;70020;45.524;10.240;2023-07-28T05:46:32;9.38;;;2.83;;
80653;SDS011;70020;45.524;10.240;2023-07-28T05:48:58;10.85;;;3.63;;
80653;SDS011;70020;45.524;10.240;2023-07-28T05:51:25;6.60;;;3.30;;
80653;SDS011;70020;45.524;10.240;2023-07-28T05:53:50;8.32;;;3.05;;
80653;SDS011;70020;45.524;10.240;2023-07-28T05:58:46;7.00;;;2.90;;
80653;SDS011;70020;45.524;10.240;2023-07-28T06:01:12;7.40;;;3.05;;
80653;SDS011;70020;45.524;10.240;2023-07-28T06:03:38;5.07;;;2.83;;
80653;SDS011;70020;45.524;10.240;2023-07-28T06:06:04;5.97;;;3.05;;
80653;SDS011;70020;45.524;10.240;2023-07-28T06:08:34;6.28;;;2.97;;
80653;SDS011;70020;45.524;10.240;2023-07-28T06:10:59;8.43;;;3.17;;
80653;SDS011;70020;45.524;10.240;2023-07-28T06:13:25;15.10;;;3.28;;
80653;SDS011;70020;45.524;10.240;2023-07-28T06:15:53;9.98;;;3.08;;
80653;SDS011;70020;45.524;10.240;2023-07-28T06:18:19;7.97;;;2.97;;
80653;SDS011;70020;45.524;10.240;2023-07-28T06:20:47;5.93;;;2.97;;
80653;SDS011;70020;45.524;10.240;2023-07-28T06:23:13;5.40;;;3.20;;
80653;SDS011;70020;45.524;10.240;2023-07-28T06:28:10;4.70;;;3.03;;
80653;SDS011;70020;45.524;10.240;2023-07-28T06:30:37;7.85;;;2.53;;
80653;SDS011;70020;45.524;10.240;2023-07-28T06:33:06;5.00;;;2.53;;
80653;SDS011;70020;45.524;10.240;2023-07-28T06:35:33;8.23;;;2.72;;
80653;SDS011;70020;45.524;10.240;2023-07-28T06:40:25;6.18;;;2.70;;
80653;SDS011;70020;45.524;10.240;2023-07-28T06:45:16;8.65;;;3.00;;
80653;SDS011;70020;45.524;10.240;2023-07-28T06:47:42;6.45;;;2.70;;
80653;SDS011;70020;45.524;10.240;2023-07-28T06:52:35;7.53;;;2.80;;
80653;SDS011;70020;45.524;10.240;2023-07-28T06:57:27;7.60;;;2.60;;
80653;SDS011;70020;45.524;10.240;2023-07-28T06:59:53;8.43;;;2.80;;
80653;SDS011;70020;45.524;10.240;2023-07-28T07:02:19;7.70;;;2.92;;
80653;SDS011;70020;45.524;10.240;2023-07-28T07:07:11;5.05;;;2.58;;
80653;SDS011;70020;45.524;10.240;2023-07-28T07:12:03;7.72;;;2.80;;
80653;SDS011;70020;45.524;10.240;2023-07-28T07:14:29;8.98;;;3.25;;
80653;SDS011;70020;45.524;10.240;2023-07-28T07:19:20;6.53;;;3.00;;
80653;SDS011;70020;45.524;10.240;2023-07-28T07:24:14;8.00;;;2.75;;
80653;SDS011;70020;45.524;10.240;2023-07-28T07:27:21;9.07;;;2.80;;
80653;SDS011;70020;45.524;10.240;2023-07-28T07:30:34;5.90;;;3.00;;
80653;SDS011;70020;45.524;10.240;2023-07-28T07:33:00;6.55;;;3.28;;
80653;SDS011;70020;45.524;10.240;2023-07-28T07:37:52;13.57;;;3.20;;
80653;SDS011;70020;45.524;10.240;2023-07-28T07:40:18;6.22;;;2.50;;
80653;SDS011;70020;45.524;10.240;2023-07-28T07:43:45;8.65;;;3.38;;
80653;SDS011;70020;45.524;10.240;2023-07-28T07:46:11;10.18;;;3.20;;
80653;SDS011;70020;45.524;10.240;2023-07-28T07:48:38;10.73;;;3.00;;
80653;SDS011;70020;45.524;10.240;2023-07-28T07:51:53;8.93;;;3.60;;
80653;SDS011;70020;45.524;10.240;2023-07-28T07:54:22;5.80;;;3.60;;
80653;SDS011;70020;45.524;10.240;2023-07-28T07:57:47;5.93;;;3.22;;
80653;SDS011;70020;45.524;10.240;2023-07-28T08:01:11;8.68;;;3.90;;
80653;SDS011;70020;45.524;10.240;2023-07-28T08:03:37;9.88;;;3.47;;
80653;SDS011;70020;45.524;10.240;2023-07-28T08:06:04;7.07;;;3.58;;
80653;SDS011;70020;45.524;10.240;2023-07-28T08:09:30;12.68;;;3.70;;
80653;SDS011;70020;45.524;10.240;2023-07-28T08:12:54;7.97;;;4.05;;
80653;SDS011;70020;45.524;10.240;2023-07-28T08:16:20;9.02;;;3.90;;
80653;SDS011;70020;45.524;10.240;2023-07-28T08:19:44;8.65;;;3.33;;
80653;SDS011;70020;45.524;10.240;2023-07-28T08:23:09;8.45;;;3.22;;
80653;SDS011;70020;45.524;10.240;2023-07-28T08:26:33;6.85;;;3.22;;
80653;SDS011;70020;45.524;10.240;2023-07-28T08:29:57;6.63;;;3.20;;
80653;SDS011;70020;45.524;10.240;2023-07-28T08:33:21;9.73;;;3.72;;
80653;SDS011;70020;45.524;10.240;2023-07-28T08:36:46;5.95;;;3.38;;
80653;SDS011;70020;45.524;10.240;2023-07-28T08:40:11;10.75;;;3.47;;
80653;SDS011;70020;45.524;10.240;2023-07-28T08:42:39;7.80;;;3.22;;
80653;SDS011;70020;45.524;10.240;2023-07-28T08:45:05;8.98;;;3.72;;
80653;SDS011;70020;45.524;10.240;2023-07-28T08:47:35;8.13;;;3.65;;
80653;SDS011;70020;45.524;10.240;2023-07-28T08:50:01;9.02;;;3.83;;
80653;SDS011;70020;45.524;10.240;2023-07-28T08:53:27;7.00;;;3.15;;
80653;SDS011;70020;45.524;10.240;2023-07-28T08:56:51;8.73;;;3.92;;
80653;SDS011;70020;45.524;10.240;2023-07-28T09:00:15;8.43;;;4.60;;
80653;SDS011;70020;45.524;10.240;2023-07-28T09:03:40;6.88;;;3.25;;
80653;SDS011;70020;45.524;10.240;2023-07-28T09:07:04;8.80;;;3.08;;
80653;SDS011;70020;45.524;10.240;2023-07-28T09:10:42;8.25;;;4.40;;
80653;SDS011;70020;45.524;10.240;2023-07-28T09:14:14;6.30;;;3.83;;
80653;SDS011;70020;45.524;10.240;2023-07-28T09:17:11;12.07;;;4.72;;
80653;SDS011;70020;45.524;10.240;2023-07-28T09:19:54;11.75;;;4.03;;
80653;SDS011;70020;45.524;10.240;2023-07-28T09:23:18;7.78;;;3.42;;
80653;SDS011;70020;45.524;10.240;2023-07-28T09:26:58;9.57;;;3.83;;
80653;SDS011;70020;45.524;10.240;2023-07-28T09:30:23;7.53;;;3.25;;
80653;SDS011;70020;45.524;10.240;2023-07-28T09:33:55;10.57;;;4.22;;
80653;SDS011;70020;45.524;10.240;2023-07-28T09:37:35;8.07;;;4.20;;
80653;SDS011;70020;45.524;10.240;2023-07-28T09:41:02;9.35;;;4.05;;
80653;SDS011;70020;45.524;10.240;2023-07-28T09:44:27;8.15;;;3.95;;
80653;SDS011;70020;45.524;10.240;2023-07-28T09:47:51;11.85;;;4.43;;
80653;SDS011;70020;45.524;10.240;2023-07-28T09:51:20;11.82;;;4.35;;
80653;SDS011;70020;45.524;10.240;2023-07-28T09:54:47;8.40;;;5.47;;
80653;SDS011;70020;45.524;10.240;2023-07-28T09:58:16;8.93;;;3.95;;
80653;SDS011;70020;45.524;10.240;2023-07-28T10:01:43;7.53;;;4.00;;
80653;SDS011;70020;45.524;10.240;2023-07-28T10:05:08;12.20;;;4.00;;
80653;SDS011;70020;45.524;10.240;2023-07-28T10:08:32;9.75;;;5.22;;
80653;SDS011;70020;45.524;10.240;2023-07-28T10:11:58;10.30;;;4.20;;
80653;SDS011;70020;45.524;10.240;2023-07-28T10:15:27;14.43;;;4.68;;
80653;SDS011;70020;45.524;10.240;2023-07-28T10:18:56;8.57;;;4.15;;
80653;SDS011;70020;45.524;10.240;2023-07-28T10:22:20;7.72;;;3.92;;
80653;SDS011;70020;45.524;10.240;2023-07-28T10:25:46;8.88;;;4.85;;
80653;SDS011;70020;45.524;10.240;2023-07-28T10:29:11;9.57;;;4.70;;
80653;SDS011;70020;45.524;10.240;2023-07-28T10:32:48;7.22;;;3.70;;
80653;SDS011;70020;45.524;10.240;2023-07-28T10:39:48;9.95;;;3.80;;
80653;SDS011;70020;45.524;10.240;2023-07-28T10:43:15;12.43;;;4.70;;
80653;SDS011;70020;45.524;10.240;2023-07-28T10:46:40;6.82;;;4.70;;
80653;SDS011;70020;45.524;10.240;2023-07-28T10:50:08;7.47;;;3.70;;
80653;SDS011;70020;45.524;10.240;2023-07-28T10:53:33;8.23;;;4.18;;
80653;SDS011;70020;45.524;10.240;2023-07-28T10:56:57;7.57;;;3.65;;
80653;SDS011;70020;45.524;10.240;2023-07-28T11:00:25;8.07;;;3.80;;
80653;SDS011;70020;45.524;10.240;2023-07-28T11:03:56;8.88;;;3.47;;
80653;SDS011;70020;45.524;10.240;2023-07-28T11:07:21;6.22;;;3.22;;
80653;SDS011;70020;45.524;10.240;2023-07-28T11:10:45;10.63;;;3.88;;
80653;SDS011;70020;45.524;10.240;2023-07-28T11:14:10;6.80;;;3.05;;
80653;SDS011;70020;45.524;10.240;2023-07-28T11:17:36;6.38;;;3.47;;
80653;SDS011;70020;45.524;10.240;2023-07-28T11:21:00;8.90;;;4.13;;
80653;SDS011;70020;45.524;10.240;2023-07-28T11:24:25;6.82;;;4.32;;
80653;SDS011;70020;45.524;10.240;2023-07-28T11:27:50;6.63;;;3.92;;
80653;SDS011;70020;45.524;10.240;2023-07-28T11:31:14;8.25;;;4.97;;
80653;SDS011;70020;45.524;10.240;2023-07-28T11:34:40;9.65;;;4.10;;
80653;SDS011;70020;45.524;10.240;2023-07-28T11:38:07;7.97;;;4.25;;
80653;SDS011;70020;45.524;10.240;2023-07-28T11:41:32;9.57;;;4.97;;
80653;SDS011;70020;45.524;10.240;2023-07-28T11:44:57;8.18;;;3.72;;
80653;SDS011;70020;45.524;10.240;2023-07-28T11:47:39;7.07;;;3.40;;
80653;SDS011;70020;45.524;10.240;2023-07-28T11:51:03;9.98;;;3.67;;
80653;SDS011;70020;45.524;10.240;2023-07-28T11:53:38;5.80;;;3.85;;
80653;SDS011;70020;45.524;10.240;2023-07-28T11:56:05;5.75;;;3.70;;
80653;SDS011;70020;45.524;10.240;2023-07-28T11:58:31;7.65;;;4.82;;
80653;SDS011;70020;45.524;10.240;2023-07-28T12:00:57;6.32;;;3.30;;
80653;SDS011;70020;45.524;10.240;2023-07-28T12:03:29;9.13;;;4.10;;
80653;SDS011;70020;45.524;10.240;2023-07-28T12:06:07;12.18;;;3.42;;
80653;SDS011;70020;45.524;10.240;2023-07-28T12:08:35;6.63;;;3.20;;
80653;SDS011;70020;45.524;10.240;2023-07-28T12:11:04;11.13;;;3.70;;
80653;SDS011;70020;45.524;10.240;2023-07-28T12:13:31;4.95;;;3.30;;
80653;SDS011;70020;45.524;10.240;2023-07-28T12:16:37;8.98;;;3.65;;
80653;SDS011;70020;45.524;10.240;2023-07-28T12:19:12;11.70;;;4.00;;
80653;SDS011;70020;45.524;10.240;2023-07-28T12:22:21;8.63;;;3.13;;
80653;SDS011;70020;45.524;10.240;2023-07-28T12:25:37;9.57;;;3.40;;
80653;SDS011;70020;45.524;10.240;2023-07-28T12:29:02;4.88;;;3.05;;
80653;SDS011;70020;45.524;10.240;2023-07-28T12:31:29;9.05;;;3.05;;
80653;SDS011;70020;45.524;10.240;2023-07-28T12:33:56;6.03;;;2.92;;
80653;SDS011;70020;45.524;10.240;2023-07-28T12:36:23;7.93;;;2.70;;
80653;SDS011;70020;45.524;10.240;2023-07-28T12:38:48;5.32;;;2.60;;
80653;SDS011;70020;45.524;10.240;2023-07-28T12:42:08;5.70;;;2.50;;
80653;SDS011;70020;45.524;10.240;2023-07-28T12:44:53;8.00;;;3.05;;
80653;SDS011;70020;45.524;10.240;2023-07-28T12:48:04;6.97;;;3.33;;
80653;SDS011;70020;45.524;10.240;2023-07-28T12:51:29;6.03;;;3.00;;
80653;SDS011;70020;45.524;10.240;2023-07-28T12:54:54;6.25;;;3.15;;
80653;SDS011;70020;45.524;10.240;2023-07-28T12:58:05;6.40;;;3.00;;
80653;SDS011;70020;45.524;10.240;2023-07-28T13:01:30;7.70;;;3.88;;
80653;SDS011;70020;45.524;10.240;2023-07-28T13:03:56;8.20;;;3.60;;
80653;SDS011;70020;45.524;10.240;2023-07-28T13:06:22;8.95;;;3.20;;
80653;SDS011;70020;45.524;10.240;2023-07-28T13:08:48;6.88;;;4.20;;
80653;SDS011;70020;45.524;10.240;2023-07-28T13:11:14;6.70;;;3.72;;
80653;SDS011;70020;45.524;10.240;2023-07-28T13:13:40;5.10;;;3.03;;
80653;SDS011;70020;45.524;10.240;2023-07-28T13:16:07;10.02;;;3.28;;
80653;SDS011;70020;45.524;10.240;2023-07-28T13:18:33;5.03;;;2.38;;
80653;SDS011;70020;45.524;10.240;2023-07-28T13:20:59;6.32;;;2.97;;
80653;SDS011;70020;45.524;10.240;2023-07-28T13:23:25;8.77;;;3.17;;
80653;SDS011;70020;45.524;10.240;2023-07-28T13:25:51;7.15;;;2.53;;
80653;SDS011;70020;45.524;10.240;2023-07-28T13:28:17;8.07;;;3.00;;
80653;SDS011;70020;45.524;10.240;2023-07-28T13:30:43;6.82;;;2.80;;
80653;SDS011;70020;45.524;10.240;2023-07-28T13:33:09;10.40;;;2.80;;
80653;SDS011;70020;45.524;10.240;2023-07-28T13:35:35;5.00;;;2.75;;
80653;SDS011;70020;45.524;10.240;2023-07-28T13:38:01;10.00;;;3.95;;
80653;SDS011;70020;45.524;10.240;2023-07-28T13:40:32;6.00;;;2.80;;
80653;SDS011;70020;45.524;10.240;2023-07-28T13:43:03;7.50;;;2.88;;
80653;SDS011;70020;45.524;10.240;2023-07-28T13:46:28;5.90;;;2.72;;
80653;SDS011;70020;45.524;10.240;2023-07-28T13:49:53;5.82;;;3.17;;
80653;SDS011;70020;45.524;10.240;2023-07-28T13:53:17;5.88;;;2.70;;
80653;SDS011;70020;45.524;10.240;2023-07-28T13:56:41;8.75;;;3.47;;
80653;SDS011;70020;45.524;10.240;2023-07-28T14:00:06;6.97;;;3.22;;
80653;SDS011;70020;45.524;10.240;2023-07-28T14:03:30;6.32;;;3.00;;
80653;SDS011;70020;45.524;10.240;2023-07-28T14:06:55;7.03;;;2.72;;
80653;SDS011;70020;45.524;10.240;2023-07-28T14:10:19;8.20;;;2.83;;
80653;SDS011;70020;45.524;10.240;2023-07-28T14:13:44;6.13;;;2.90;;
80653;SDS011;70020;45.524;10.240;2023-07-28T14:17:08;6.22;;;2.60;;
80653;SDS011;70020;45.524;10.240;2023-07-28T14:20:32;6.05;;;2.90;;
80653;SDS011;70020;45.524;10.240;2023-07-28T14:23:57;6.82;;;2.90;;
80653;SDS011;70020;45.524;10.240;2023-07-28T14:27:22;9.18;;;2.90;;
80653;SDS011;70020;45.524;10.240;2023-07-28T14:30:47;6.85;;;2.67;;
80653;SDS011;70020;45.524;10.240;2023-07-28T14:34:11;5.38;;;2.60;;
80653;SDS011;70020;45.524;10.240;2023-07-28T14:37:36;11.27;;;4.13;;
80653;SDS011;70020;45.524;10.240;2023-07-28T14:41:00;8.00;;;3.22;;
80653;SDS011;70020;45.524;10.240;2023-07-28T14:44:24;8.20;;;3.00;;
80653;SDS011;70020;45.524;10.240;2023-07-28T14:47:48;8.35;;;3.13;;
80653;SDS011;70020;45.524;10.240;2023-07-28T14:51:13;6.03;;;2.80;;
80653;SDS011;70020;45.524;10.240;2023-07-28T14:54:37;6.35;;;2.80;;
80653;SDS011;70020;45.524;10.240;2023-07-28T14:58:02;5.82;;;2.70;;
80653;SDS011;70020;45.524;10.240;2023-07-28T15:01:27;12.15;;;3.50;;
80653;SDS011;70020;45.524;10.240;2023-07-28T15:04:51;5.43;;;3.38;;
80653;SDS011;70020;45.524;10.240;2023-07-28T15:08:16;7.47;;;2.97;;
80653;SDS011;70020;45.524;10.240;2023-07-28T15:11:43;4.60;;;2.75;;
80653;SDS011;70020;45.524;10.240;2023-07-28T15:15:09;8.13;;;3.35;;
80653;SDS011;70020;45.524;10.240;2023-07-28T15:18:33;9.40;;;2.97;;
80653;SDS011;70020;45.524;10.240;2023-07-28T15:21:57;10.93;;;3.72;;
80653;SDS011;70020;45.524;10.240;2023-07-28T15:25:22;7.45;;;3.00;;
80653;SDS011;70020;45.524;10.240;2023-07-28T15:28:46;9.55;;;3.30;;
80653;SDS011;70020;45.524;10.240;2023-07-28T15:32:11;5.18;;;3.08;;
80653;SDS011;70020;45.524;10.240;2023-07-28T15:35:35;8.48;;;3.08;;
80653;SDS011;70020;45.524;10.240;2023-07-28T15:38:59;8.48;;;3.50;;
80653;SDS011;70020;45.524;10.240;2023-07-28T15:42:24;13.05;;;3.13;;
80653;SDS011;70020;45.524;10.240;2023-07-28T15:45:49;10.82;;;3.72;;
80653;SDS011;70020;45.524;10.240;2023-07-28T15:49:16;7.10;;;3.45;;
80653;SDS011;70020;45.524;10.240;2023-07-28T15:52:40;8.20;;;4.20;;
80653;SDS011;70020;45.524;10.240;2023-07-28T15:56:05;7.45;;;2.88;;
80653;SDS011;70020;45.524;10.240;2023-07-28T15:59:29;8.25;;;2.85;;
80653;SDS011;70020;45.524;10.240;2023-07-28T16:02:53;8.95;;;3.33;;
80653;SDS011;70020;45.524;10.240;2023-07-28T16:06:18;15.05;;;3.85;;
80653;SDS011;70020;45.524;10.240;2023-07-28T16:09:42;7.97;;;3.42;;
80653;SDS011;70020;45.524;10.240;2023-07-28T16:13:06;5.78;;;2.65;;
80653;SDS011;70020;45.524;10.240;2023-07-28T16:16:31;8.35;;;3.28;;
80653;SDS011;70020;45.524;10.240;2023-07-28T16:19:55;4.80;;;3.13;;
80653;SDS011;70020;45.524;10.240;2023-07-28T16:23:20;8.88;;;2.90;;
80653;SDS011;70020;45.524;10.240;2023-07-28T16:26:44;7.00;;;3.15;;
80653;SDS011;70020;45.524;10.240;2023-07-28T16:30:08;9.13;;;3.13;;
80653;SDS011;70020;45.524;10.240;2023-07-28T16:33:33;6.18;;;2.95;;
80653;SDS011;70020;45.524;10.240;2023-07-28T16:36:58;7.07;;;3.00;;
80653;SDS011;70020;45.524;10.240;2023-07-28T16:40:22;8.85;;;3.35;;
80653;SDS011;70020;45.524;10.240;2023-07-28T16:43:46;6.75;;;3.13;;
80653;SDS011;70020;45.524;10.240;2023-07-28T16:47:10;5.60;;;2.83;;
80653;SDS011;70020;45.524;10.240;2023-07-28T16:50:35;6.93;;;3.03;;
80653;SDS011;70020;45.524;10.240;2023-07-28T16:53:59;5.30;;;2.63;;
80653;SDS011;70020;45.524;10.240;2023-07-28T16:57:24;5.60;;;3.13;;
80653;SDS011;70020;45.524;10.240;2023-07-28T17:00:48;7.97;;;3.38;;
80653;SDS011;70020;45.524;10.240;2023-07-28T17:04:12;7.43;;;2.83;;
80653;SDS011;70020;45.524;10.240;2023-07-28T17:07:37;5.68;;;2.75;;
80653;SDS011;70020;45.524;10.240;2023-07-28T17:11:02;5.32;;;2.80;;
80653;SDS011;70020;45.524;10.240;2023-07-28T17:14:26;7.03;;;2.60;;
80653;SDS011;70020;45.524;10.240;2023-07-28T17:17:50;9.05;;;3.03;;
80653;SDS011;70020;45.524;10.240;2023-07-28T17:21:14;6.60;;;2.60;;
80653;SDS011;70020;45.524;10.240;2023-07-28T17:24:38;5.47;;;2.80;;
80653;SDS011;70020;45.524;10.240;2023-07-28T17:28:02;7.00;;;3.25;;
80653;SDS011;70020;45.524;10.240;2023-07-28T17:31:27;7.47;;;3.10;;
80653;SDS011;70020;45.524;10.240;2023-07-28T17:34:51;7.35;;;3.10;;
80653;SDS011;70020;45.524;10.240;2023-07-28T17:38:15;7.70;;;2.83;;
80653;SDS011;70020;45.524;10.240;2023-07-28T17:41:40;7.03;;;2.58;;
80653;SDS011;70020;45.524;10.240;2023-07-28T17:45:04;5.97;;;2.83;;
80653;SDS011;70020;45.524;10.240;2023-07-28T17:48:30;9.95;;;2.80;;
80653;SDS011;70020;45.524;10.240;2023-07-28T17:51:54;8.68;;;3.45;;
80653;SDS011;70020;45.524;10.240;2023-07-28T17:55:18;7.55;;;3.35;;
80653;SDS011;70020;45.524;10.240;2023-07-28T17:58:43;10.13;;;3.30;;
80653;SDS011;70020;45.524;10.240;2023-07-28T18:02:07;7.25;;;3.45;;
80653;SDS011;70020;45.524;10.240;2023-07-28T18:05:32;7.40;;;3.35;;
80653;SDS011;70020;45.524;10.240;2023-07-28T18:08:56;7.90;;;3.38;;
80653;SDS011;70020;45.524;10.240;2023-07-28T18:12:21;10.20;;;3.20;;
80653;SDS011;70020;45.524;10.240;2023-07-28T18:15:45;9.10;;;3.78;;
80653;SDS011;70020;45.524;10.240;2023-07-28T18:19:10;7.57;;;3.08;;
80653;SDS011;70020;45.524;10.240;2023-07-28T18:22:35;10.50;;;3.50;;
80653;SDS011;70020;45.524;10.240;2023-07-28T18:25:59;7.30;;;3.50;;
80653;SDS011;70020;45.524;10.240;2023-07-28T18:29:24;10.25;;;3.90;;
80653;SDS011;70020;45.524;10.240;2023-07-28T18:32:48;6.22;;;3.15;;
80653;SDS011;70020;45.524;10.240;2023-07-28T18:36:14;8.43;;;2.70;;
80653;SDS011;70020;45.524;10.240;2023-07-28T18:39:38;6.55;;;2.83;;
80653;SDS011;70020;45.524;10.240;2023-07-28T18:43:03;7.75;;;3.40;;
80653;SDS011;70020;45.524;10.240;2023-07-28T18:46:27;6.57;;;3.22;;
80653;SDS011;70020;45.524;10.240;2023-07-28T18:49:52;9.38;;;3.63;;
80653;SDS011;70020;45.524;10.240;2023-07-28T18:53:17;7.13;;;3.25;;
80653;SDS011;70020;45.524;10.240;2023-07-28T18:56:41;6.63;;;2.80;;
80653;SDS011;70020;45.524;10.240;2023-07-28T19:00:06;10.05;;;3.20;;
80653;SDS011;70020;45.524;10.240;2023-07-28T19:03:30;7.93;;;3.00;;
80653;SDS011;70020;45.524;10.240;2023-07-28T19:06:54;6.35;;;3.63;;
80653;SDS011;70020;45.524;10.240;2023-07-28T19:10:19;13.35;;;3.30;;
80653;SDS011;70020;45.524;10.240;2023-07-28T19:13:43;6.47;;;3.30;;
80653;SDS011;70020;45.524;10.240;2023-07-28T19:17:08;6.82;;;3.25;;
80653;SDS011;70020;45.524;10.240;2023-07-28T19:20:33;7.57;;;3.30;;
80653;SDS011;70020;45.524;10.240;2023-07-28T19:23:58;5.55;;;3.25;;
80653;SDS011;70020;45.524;10.240;2023-07-28T19:27:23;9.32;;;3.20;;
80653;SDS011;70020;45.524;10.240;2023-07-28T19:30:47;8.70;;;3.63;;
80653;SDS011;70020;45.524;10.240;2023-07-28T19:34:11;12.25;;;3.50;;
80653;SDS011;70020;45.524;10.240;2023-07-28T19:37:36;10.27;;;3.58;;
80653;SDS011;70020;45.524;10.240;2023-07-28T19:41:01;8.32;;;3.83;;
80653;SDS011;70020;45.524;10.240;2023-07-28T19:44:26;9.63;;;3.58;;
80653;SDS011;70020;45.524;10.240;2023-07-28T19:47:50;9.93;;;4.20;;